Riverton, WY

6:56 AM MDT on July 23, 2014 (GMT -0600)
Logan Park (KWYRIVER4) Elev 4984 ft | 43.04 °N, 108.39 °W | Change Station
Active Advisory: Fire Weather Warning

Current weather conditions updated 5 seconds ago

Clear
Clear
61.0 °F
Feels Like 61.0 °F
N
0.0
Wind Variable Wind from NNW
Gusts 0.0 mph

Today is forecast to be Warmer than yesterday.

Today
High -- | Low -- °F
--% Chance of Precip.
Yesterday
High -- | Low -- °F
Precip. -- in
5:55 AM 8:44 PM
Waning Crescent, 10% visible
Pressure 30.07 in
Visibility 10.0 miles
Clouds Clear
Dew Point 54 °F
Humidity 79%
Rainfall 0.00 in
Snow Depth Not available.
UV 0 out of 12
Pollen 6.50 out of 12
Air Quality Not available.
Flu Activity Not available.
METAR KRIW 231253Z AUTO 09003KT 10SM CLR 17/12 A3029 RMK AO2 SLP182 T01720122

More Conditions Fewer Conditions

Pressure 30.07 in
Visibility 10.0 miles
Clouds Clear
Dew Point 54 °F
Humidity 79%
Rainfall 0.00 in
Snow Depth Not available.
UV 0 out of 12
Pollen 6.50 out of 12
Air Quality Not available.
Flu Activity Not available.
METAR KRIW 231253Z AUTO 09003KT 10SM CLR 17/12 A3029 RMK AO2 SLP182 T01720122

More Conditions Fewer Conditions

10-Day Weather Forecast

Almanac

Astronomy

Jul. 23, 2014 Rise Set
Actual Time 5:55 AM MDT 8:44 PM MDT
Civil Twilight 5:21 AM MDT 9:17 PM MDT
Nautical Twilight 4:39 AM MDT 9:59 PM MDT
Astronomical Twilight 3:50 AM MDT 10:48 PM MDT
Moon 3:17 AM MDT 6:15 PM MDT
Length of Visible Light 15h 56m
Length of Day
14h 49m
Tomorrow will be 1m 56s shorter.
Waning Crescent, 10% of the Moon is Illuminated
Today
Waning Crescent
Jul 26
New
Aug 3
First Quarter
Aug 10
Full
Aug 17
Last Quarter

Today's Extremes

State Highs State Lows

Community

WunderPhotos

Upload Photos

1,736,582 photos uploaded!

Nearby

Snow Depth

Station Depth Elevation
Townsend Creek 1 in 8700 ft
St. Lawrence Alt 0 in 8620 ft
Owl Creek 0 in 8975 ft
Cold Springs 1 in 9630 ft
Big Sandy Opening 1 in 9080 ft

Earthquake Activity

City Distance Mag. Time & Date
No recent earthquake activity has been reported nearby.
Minimum magnitude displayed is 2.5.

Coastal Water Temperatures

Place Temperature
No Stations Reporting

Nearby Weather Stations

Station Location Temp. Dew Point Humidity Wind Precip. Elev Updated Type
Logan Park, Riverton, WY 61.0 °F 54 °F 79% NNW  at  0.0 mph 0.00 in / hr 4984 ft 6:56 AM MDT Rapid Fire
Riverton, WY 63.7 °F 55 °F 73% ESE  at  0.0 mph - / hr 5405 ft 6:44 AM MDT Normal
HADS LITTLE WIND RIVER NEAR RIVERTON WY, Saint Stephens, WY 62 °F - - North  at  - 0.00 in / hr 4900 ft 6:15 AM MDT MADIS
HADS BOYSEN RESERVOIR WEATHER STATION WY, Shoshoni, WY 68 °F - - West  at  1 mph 0.00 in / hr 4708 ft 5:30 AM MDT MADIS

Show More Stations Show Fewer Stations